This is the latest recevied weather packets stored in our database for station/object K5RWS. If no packets are shown the sender has not sent any weather packets the latest 10 day(s).
| Time | Temp. | Humidity | Pressure | Rain* | Wind** | Luminosity | Snow |
|---|---|---|---|---|---|---|---|
| 1777666414 | 16.11° C | 49% | 1019.1 hPa | 0 mm | - | 463 W/m² | - |
| 1777666111 | 16.67° C | 50% | 1019.3 hPa | 0 mm | - | 611 W/m² | - |
| 1777665808 | 15.56° C | 54% | 1019.3 hPa | 0 mm | - | 337 W/m² | - |
| 1777665506 | 15.56° C | 52% | 1019.1 hPa | 0 mm | - | 218 W/m² | - |
| 1777665201 | 16.11° C | 49% | 1019.5 hPa | 0 mm | - | 830 W/m² | - |
| 1777664892 | 15° C | 51% | 1019.4 hPa | 0 mm | - | 868 W/m² | - |
| 1777664588 | 15.56° C | 50% | 1019.5 hPa | 0 mm | - | 830 W/m² | - |
| 1777664284 | 15.56° C | 51% | 1019.4 hPa | 0 mm | - | 837 W/m² | - |
| 1777663983 | 15° C | 53% | 1019.5 hPa | 0 mm | - | 948 W/m² | - |
| 1777663680 | 13.89° C | 53% | 1019.7 hPa | 0 mm | - | 302 W/m² | - |
| 1777663376 | 13.89° C | 54% | 1019.6 hPa | 0 mm | - | 378 W/m² | - |
| 1777663074 | 13.89° C | 54% | 1019.7 hPa | 0 mm | - | 335 W/m² | - |
| 1777662771 | 13.89° C | 55% | 1019.8 hPa | 0 mm | - | 318 W/m² | - |
| 1777662468 | 14.44° C | 52% | 1020.1 hPa | 0 mm | - | 782 W/m² | - |
| 1777662163 | 14.44° C | 52% | 1020.1 hPa | 0 mm | - | 295 W/m² | - |
| 1777661859 | 13.89° C | 54% | 1020 hPa | 0 mm | - | 887 W/m² | - |
| 1777661555 | 13.89° C | 56% | 1020.1 hPa | 0 mm | - | 679 W/m² | - |
| 1777661252 | 13.33° C | 57% | 1020.2 hPa | 0 mm | - | 376 W/m² | - |
| 1777660947 | 13.89° C | 56% | 1020.2 hPa | 0 mm | - | 357 W/m² | - |
| 1777660643 | 14.44° C | 56% | 1020.3 hPa | 0 mm | - | 748 W/m² | - |
| 1777660341 | 13.33° C | 57% | 1020.2 hPa | 0 mm | - | 298 W/m² | - |
| 1777660037 | 13.33° C | 56% | 1020.6 hPa | 0 mm | - | 260 W/m² | - |
| 1777659734 | 14.44° C | 56% | 1020.6 hPa | 0 mm | - | 341 W/m² | - |
| 1777659430 | 14.44° C | 54% | 1020.4 hPa | 0 mm | - | 969 W/m² | - |
| 1777659128 | 13.89° C | 56% | 1020.6 hPa | 0 mm | - | 558 W/m² | - |
* Rain latest hour (hover to see other rain measurements)
** Current wind speed in m/s (hover to see current wind gust speed)